createdAt,value
2019-05-22T00:06:13.892Z,1011.2
2019-05-22T00:18:37.358Z,1011.2
2019-05-22T00:31:20.438Z,1011.1
2019-05-22T00:43:02.967Z,1011.3
2019-05-22T00:53:34.139Z,1011.4
2019-05-22T01:04:50.753Z,1011.4
2019-05-22T01:16:03.909Z,1011.5
2019-05-22T01:26:49.806Z,1011.5
2019-05-22T01:37:03.426Z,1011.7
2019-05-22T01:47:17.809Z,1011.6
2019-05-22T01:57:31.976Z,1011.8
2019-05-22T02:07:43.666Z,1011.8
2019-05-22T02:17:57.297Z,1011.8
2019-05-22T02:28:09.100Z,1011.9
2019-05-22T02:38:54.069Z,1011.9
2019-05-22T02:49:06.035Z,1012.0
2019-05-22T02:59:51.309Z,1012.0
2019-05-22T03:10:45.501Z,1012.1
2019-05-22T03:21:31.516Z,1012.2
2019-05-22T03:32:17.159Z,1012.3
2019-05-22T03:43:13.797Z,1012.4
2019-05-22T03:54:14.257Z,1012.4
2019-05-22T04:04:28.283Z,1012.5
2019-05-22T04:15:35.721Z,1012.5
2019-05-22T04:26:06.189Z,1012.7
2019-05-22T04:37:28.966Z,1012.8
2019-05-22T04:48:05.320Z,1012.8
2019-05-22T04:59:13.995Z,1012.9
2019-05-22T05:09:27.758Z,1012.9
2019-05-22T05:19:41.644Z,1013.1
2019-05-22T05:30:11.290Z,1013.2
2019-05-22T05:41:05.374Z,1013.2
2019-05-22T05:51:18.717Z,1013.3
2019-05-22T06:02:02.683Z,1013.5
2019-05-22T06:12:17.268Z,1013.5
2019-05-22T06:23:10.471Z,1013.6
2019-05-22T06:34:33.437Z,1013.8
2019-05-22T06:45:25.180Z,1013.7
2019-05-22T06:55:43.863Z,1013.9
2019-05-22T07:06:24.906Z,1013.8
2019-05-22T07:17:55.584Z,1013.9
2019-05-22T07:28:43.015Z,1014.0
2019-05-22T07:39:28.958Z,1014.0
2019-05-22T07:49:42.771Z,1014.1
2019-05-22T07:59:54.434Z,1014.1
2019-05-22T08:10:39.595Z,1014.1
2019-05-22T08:20:50.950Z,1014.2
2019-05-22T08:31:05.452Z,1014.3
2019-05-22T08:41:20.213Z,1014.4
2019-05-22T08:51:33.885Z,1014.4
2019-05-22T09:01:48.033Z,1014.5
2019-05-22T09:12:02.747Z,1014.6
2019-05-22T09:22:17.457Z,1014.6
2019-05-22T09:32:28.997Z,1015.0
2019-05-22T09:43:16.796Z,1014.6
2019-05-22T09:54:02.277Z,1014.9
2019-05-22T10:04:47.661Z,1014.4
2019-05-22T10:15:03.496Z,1014.4
2019-05-22T10:25:16.157Z,1014.5
2019-05-22T10:35:27.383Z,1014.4
2019-05-22T10:45:41.260Z,1014.2
2019-05-22T10:55:55.151Z,1014.3
2019-05-22T11:06:08.124Z,1014.4
2019-05-22T11:16:36.028Z,1014.5
2019-05-22T11:27:14.185Z,1014.2
2019-05-22T11:37:48.914Z,1014.2
2019-05-22T11:48:01.431Z,1014.1
2019-05-22T11:58:14.907Z,1013.9
2019-05-22T12:08:29.476Z,1014.1
2019-05-22T12:19:17.019Z,1014.0
2019-05-22T12:30:03.058Z,1014.0
2019-05-22T12:40:16.210Z,1014.0
2019-05-22T12:50:30.614Z,1014.2
2019-05-22T13:00:43.588Z,1014.1
2019-05-22T13:11:09.913Z,1014.3
2019-05-22T13:22:36.496Z,1013.3
2019-05-22T13:32:51.167Z,1013.5
2019-05-22T13:43:05.340Z,1013.6
2019-05-22T13:53:18.960Z,1013.9
2019-05-22T14:03:33.899Z,1013.9
2019-05-22T14:13:47.975Z,1013.5
2019-05-22T14:24:33.180Z,1013.5
2019-05-22T14:34:47.857Z,1013.5
2019-05-22T14:45:33.161Z,1013.5
2019-05-22T14:55:44.710Z,1013.4
2019-05-22T15:05:56.890Z,1013.5
2019-05-22T15:16:11.557Z,1013.4
2019-05-22T15:26:25.505Z,1013.4
2019-05-22T15:36:39.130Z,1013.4
2019-05-22T15:46:53.098Z,1013.4
2019-05-22T15:57:38.085Z,1013.3
2019-05-22T16:08:24.948Z,1013.4
2019-05-22T16:18:38.439Z,1013.3
2019-05-22T16:29:15.570Z,1013.3
2019-05-22T16:39:29.102Z,1013.5
2019-05-22T16:49:43.088Z,1013.3
2019-05-22T16:59:54.920Z,1013.4
2019-05-22T17:10:06.678Z,1013.3
2019-05-22T17:20:54.237Z,1013.3
2019-05-22T17:31:08.067Z,1013.4
2019-05-22T17:41:58.228Z,1013.6
2019-05-22T17:52:52.638Z,1013.6
2019-05-22T18:06:19.122Z,1013.5
2019-05-22T18:17:31.686Z,1013.6
2019-05-22T19:40:03.707Z,1014.3
2019-05-22T19:51:31.807Z,1014.3
2019-05-22T20:01:45.542Z,1014.5
2019-05-22T20:24:49.566Z,1014.7
2019-05-22T21:03:09.078Z,1014.7
2019-05-22T21:14:46.361Z,1014.8
2019-05-22T21:26:17.496Z,1014.8
2019-05-22T21:37:28.102Z,1014.8
2019-05-22T21:48:01.799Z,1014.8
2019-05-22T21:58:57.058Z,1014.8
2019-05-22T22:11:08.425Z,1014.7
2019-05-22T22:23:22.497Z,1014.8
2019-05-22T22:35:25.745Z,1014.8
2019-05-22T22:45:39.383Z,1014.9
2019-05-22T22:57:53.923Z,1014.9
2019-05-22T23:09:56.370Z,1014.7
2019-05-22T23:21:09.448Z,1014.7
2019-05-22T23:32:05.209Z,1014.6
2019-05-22T23:43:15.660Z,1014.8
2019-05-22T23:54:13.220Z,1014.8
